createdAt,value
2018-04-01T00:01:25.798Z,6.67
2018-04-01T00:04:48.144Z,6.83
2018-04-01T00:08:10.406Z,6.80
2018-04-01T00:11:32.681Z,6.91
2018-04-01T00:14:54.958Z,6.89
2018-04-01T00:18:18.002Z,6.87
2018-04-01T00:21:40.279Z,6.95
2018-04-01T00:25:02.617Z,6.95
2018-04-01T00:28:24.947Z,6.95
2018-04-01T00:31:47.227Z,6.93
2018-04-01T00:35:09.477Z,6.91
2018-04-01T00:38:31.770Z,6.88
2018-04-01T00:41:54.824Z,6.88
2018-04-01T00:45:17.151Z,6.81
2018-04-01T00:48:39.419Z,6.88
2018-04-01T00:52:01.749Z,6.84
2018-04-01T00:55:24.024Z,6.72
2018-04-01T00:58:46.282Z,6.76
2018-04-01T01:02:08.579Z,6.79
2018-04-01T01:05:31.633Z,6.72
2018-04-01T01:08:53.900Z,6.69
2018-04-01T01:12:16.235Z,6.71
2018-04-01T01:15:38.580Z,6.71
2018-04-01T01:19:00.912Z,6.65
2018-04-01T01:22:23.256Z,6.61
2018-04-01T01:25:45.563Z,6.61
2018-04-01T01:29:07.847Z,6.77
2018-04-01T01:32:30.117Z,6.75
2018-04-01T01:35:52.512Z,6.70
2018-04-01T01:39:14.807Z,6.75
2018-04-01T01:42:37.135Z,6.73
2018-04-01T01:45:59.414Z,6.81
2018-04-01T01:49:22.468Z,6.78
2018-04-01T01:52:44.811Z,6.61
2018-04-01T01:56:07.162Z,6.51
2018-04-01T01:59:30.192Z,6.54
2018-04-01T02:02:52.550Z,6.53
2018-04-01T02:06:14.855Z,6.56
2018-04-01T02:09:37.157Z,6.54
2018-04-01T02:12:59.477Z,6.58
2018-04-01T02:16:21.750Z,6.52
2018-04-01T02:19:44.029Z,6.51
2018-04-01T02:23:06.304Z,6.54
2018-04-01T02:26:28.648Z,6.53
2018-04-01T02:29:51.699Z,6.57
2018-04-01T02:33:13.965Z,6.64
2018-04-01T02:36:36.223Z,6.66
2018-04-01T02:39:58.497Z,6.68
2018-04-01T02:43:20.752Z,6.68
2018-04-01T02:46:43.031Z,6.61
2018-04-01T02:50:05.289Z,6.52
2018-04-01T02:53:27.662Z,6.50
2018-04-01T02:56:50.797Z,6.31
2018-04-01T03:00:13.837Z,6.34
2018-04-01T03:03:36.106Z,6.31
2018-04-01T03:06:58.426Z,6.23
2018-04-01T03:10:20.720Z,6.19
2018-04-01T03:13:43.065Z,6.28
2018-04-01T03:17:05.520Z,6.30
2018-04-01T03:20:27.813Z,6.28
2018-04-01T03:23:50.146Z,6.14
2018-04-01T03:27:12.415Z,6.29
2018-04-01T03:30:34.677Z,6.27
2018-04-01T03:33:57.023Z,6.28
2018-04-01T03:37:19.305Z,6.30
2018-04-01T03:40:42.337Z,6.37
2018-04-01T03:44:04.631Z,6.35
2018-04-01T03:47:26.952Z,6.24
2018-04-01T03:50:49.213Z,6.07
2018-04-01T03:54:11.482Z,6.15
2018-04-01T03:57:33.744Z,5.95
2018-04-01T04:00:56.018Z,5.92
2018-04-01T04:04:18.287Z,5.93
2018-04-01T04:07:40.550Z,5.98
2018-04-01T04:11:02.804Z,5.85
2018-04-01T04:14:25.099Z,5.88
2018-04-01T04:17:48.138Z,5.95
2018-04-01T04:21:10.454Z,5.81
2018-04-01T04:24:32.763Z,5.67
2018-04-01T04:27:55.021Z,5.65
2018-04-01T04:31:17.286Z,5.68
2018-04-01T04:34:39.572Z,5.68
2018-04-01T04:38:02.611Z,5.65
2018-04-01T04:41:24.910Z,5.71
2018-04-01T04:44:48.009Z,5.72
2018-04-01T04:48:10.331Z,5.69
2018-04-01T04:51:33.366Z,5.70
2018-04-01T04:54:55.694Z,5.66
2018-04-01T04:58:17.968Z,5.74
2018-04-01T05:01:40.317Z,5.79
2018-04-01T05:05:03.370Z,5.84
2018-04-01T05:08:25.800Z,5.88
2018-04-01T05:11:48.059Z,5.79
2018-04-01T05:15:10.386Z,5.78
2018-04-01T05:18:32.648Z,5.81
2018-04-01T05:21:54.918Z,5.80
2018-04-01T05:25:17.202Z,5.94
2018-04-01T05:28:40.246Z,5.86
2018-04-01T05:32:02.516Z,5.78
2018-04-01T05:35:24.802Z,5.74
2018-04-01T05:38:47.849Z,5.86
2018-04-01T05:42:10.126Z,5.82
2018-04-01T05:45:32.476Z,5.82
2018-04-01T05:48:55.521Z,5.86
2018-04-01T05:52:17.793Z,5.95
2018-04-01T05:55:40.119Z,5.97
2018-04-01T05:59:02.532Z,5.99
2018-04-01T06:02:24.790Z,5.98
2018-04-01T06:05:47.079Z,5.99
2018-04-01T06:09:09.358Z,5.95
2018-04-01T06:12:32.417Z,6.15
2018-04-01T06:15:54.736Z,6.26
2018-04-01T06:19:17.012Z,6.22
2018-04-01T06:22:39.299Z,6.27
2018-04-01T06:26:02.341Z,6.21
2018-04-01T06:29:24.815Z,6.13
2018-04-01T06:32:47.115Z,6.12
2018-04-01T06:36:10.150Z,6.26
2018-04-01T06:39:32.509Z,6.22
2018-04-01T06:42:54.856Z,6.20
2018-04-01T06:46:17.925Z,6.36
2018-04-01T06:49:40.993Z,6.41
2018-04-01T06:53:03.300Z,6.53
2018-04-01T06:56:25.605Z,6.52
2018-04-01T06:59:47.913Z,6.67
2018-04-01T07:03:10.170Z,6.80
2018-04-01T07:06:32.445Z,6.86
2018-04-01T07:09:54.843Z,6.90
2018-04-01T07:13:17.444Z,7.22
2018-04-01T07:16:40.597Z,7.33
2018-04-01T07:20:02.919Z,7.55
2018-04-01T07:23:25.981Z,7.69
2018-04-01T07:26:49.029Z,7.58
2018-04-01T07:30:11.486Z,7.46
2018-04-01T07:33:33.782Z,7.59
2018-04-01T07:36:56.058Z,7.56
2018-04-01T07:40:19.266Z,7.39
2018-04-01T07:43:41.774Z,7.61
2018-04-01T07:47:04.102Z,7.60
2018-04-01T07:50:27.153Z,7.60
2018-04-01T07:53:49.509Z,7.56
2018-04-01T07:57:12.696Z,7.63
2018-04-01T08:00:35.165Z,7.90
2018-04-01T08:03:57.545Z,7.77
2018-04-01T08:07:20.785Z,7.95
2018-04-01T08:10:43.111Z,7.94
2018-04-01T08:14:05.464Z,7.87
2018-04-01T08:17:27.740Z,8.00
2018-04-01T08:20:50.020Z,7.94
2018-04-01T08:24:12.340Z,8.25
2018-04-01T08:27:34.620Z,8.36
2018-04-01T08:30:56.874Z,8.25
2018-04-01T08:34:19.201Z,8.03
2018-04-01T08:37:41.504Z,7.89
2018-04-01T08:41:03.836Z,7.89
2018-04-01T08:44:26.177Z,8.04
2018-04-01T08:47:48.439Z,7.91
2018-04-01T08:51:10.789Z,7.92
2018-04-01T08:54:33.120Z,7.76
2018-04-01T08:57:55.378Z,8.07
2018-04-01T09:01:17.846Z,8.17
2018-04-01T09:04:40.153Z,7.95
2018-04-01T09:08:03.191Z,8.01
2018-04-01T10:34:18.877Z,8.91
2018-04-01T10:37:41.794Z,8.42
2018-04-01T10:41:04.624Z,7.86
2018-04-01T10:44:27.480Z,7.18
2018-04-01T10:47:50.341Z,6.49
2018-04-01T10:51:13.173Z,6.79
2018-04-01T10:54:35.546Z,7.09
2018-04-01T10:57:59.616Z,7.21
2018-04-01T11:01:21.911Z,7.56
2018-04-01T11:04:44.212Z,7.79
2018-04-01T11:08:06.492Z,8.04
2018-04-01T11:11:28.810Z,8.43
2018-04-01T11:14:51.852Z,8.84
2018-04-01T11:18:14.892Z,9.17
2018-04-01T11:21:37.222Z,9.32
2018-04-01T11:24:59.566Z,9.72
2018-04-01T11:28:21.935Z,9.66
2018-04-01T11:31:44.991Z,9.56
2018-04-01T11:35:08.039Z,9.43
2018-04-01T11:38:30.305Z,9.14
2018-04-01T11:41:52.567Z,9.15
2018-04-01T11:45:14.853Z,8.99
2018-04-01T11:48:37.892Z,8.46
2018-04-01T11:52:00.247Z,8.39
2018-04-01T11:55:22.721Z,8.01
2018-04-01T11:58:45.022Z,7.95
2018-04-01T12:02:07.379Z,7.92
2018-04-01T12:05:29.685Z,7.85
2018-04-01T12:08:52.785Z,8.21
2018-04-01T12:12:15.076Z,8.35
2018-04-01T12:15:37.472Z,8.25
2018-04-01T12:18:59.819Z,8.67
2018-04-01T12:22:22.264Z,8.96
2018-04-01T12:25:45.431Z,9.29
2018-04-01T12:29:07.696Z,9.64
2018-04-01T12:32:29.985Z,9.78
2018-04-01T12:35:52.311Z,9.53
2018-04-01T12:39:14.614Z,9.03
2018-04-01T12:42:37.663Z,9.00
2018-04-01T12:46:00.122Z,8.84
2018-04-01T12:49:22.421Z,9.18
2018-04-01T12:52:45.485Z,9.13
2018-04-01T12:56:07.825Z,9.17
2018-04-01T12:59:30.914Z,8.99
2018-04-01T13:02:53.244Z,8.73
2018-04-01T13:06:16.278Z,8.86
2018-04-01T13:09:38.576Z,8.89
2018-04-01T13:13:01.644Z,8.81
2018-04-01T13:16:24.719Z,8.66
2018-04-01T13:19:47.021Z,8.72
2018-04-01T13:23:09.365Z,8.85
2018-04-01T13:26:32.434Z,9.06
2018-04-01T13:29:55.583Z,9.29
2018-04-01T13:33:18.629Z,9.48
2018-04-01T13:36:40.891Z,9.66
2018-04-01T13:40:03.223Z,9.71
2018-04-01T13:43:25.540Z,9.60
2018-04-01T13:46:47.968Z,9.46
2018-04-01T13:50:10.263Z,9.63
2018-04-01T13:53:33.323Z,9.93
2018-04-01T13:56:55.645Z,9.62
2018-04-01T14:00:17.938Z,9.49
2018-04-01T14:03:40.985Z,9.65
2018-04-01T14:07:03.269Z,9.60
2018-04-01T14:10:26.323Z,9.60
2018-04-01T14:13:48.627Z,9.35
2018-04-01T14:17:11.051Z,9.34
2018-04-01T14:20:33.356Z,9.50
2018-04-01T14:23:56.452Z,9.43
2018-04-01T14:27:18.765Z,9.39
2018-04-01T14:30:41.810Z,9.69
2018-04-01T14:34:04.151Z,9.59
2018-04-01T14:37:26.510Z,9.60
2018-04-01T14:40:49.568Z,9.59
2018-04-01T14:44:12.647Z,9.48
2018-04-01T14:47:35.702Z,9.25
2018-04-01T14:50:58.771Z,9.49
2018-04-01T14:54:21.835Z,9.54
2018-04-01T14:57:44.894Z,9.46
2018-04-01T15:01:07.971Z,9.52
2018-04-01T15:04:31.054Z,9.27
2018-04-01T15:07:53.349Z,9.46
2018-04-01T15:11:15.654Z,9.58
2018-04-01T15:14:37.998Z,9.69
2018-04-01T15:18:00.318Z,9.56
2018-04-01T15:21:23.383Z,9.45
2018-04-01T15:24:46.437Z,9.55
2018-04-01T15:28:08.704Z,9.57
2018-04-01T15:31:31.099Z,9.31
2018-04-01T15:34:53.391Z,8.97
2018-04-01T15:38:15.840Z,9.09
2018-04-01T15:41:38.124Z,8.97
2018-04-01T15:45:00.402Z,8.72
2018-04-01T15:48:22.741Z,8.61
2018-04-01T15:51:45.805Z,8.56
2018-04-01T15:55:08.143Z,8.24
2018-04-01T15:58:30.559Z,8.24
2018-04-01T16:01:53.638Z,8.75
2018-04-01T16:05:16.694Z,9.24
2018-04-01T16:08:39.778Z,9.48
2018-04-01T16:12:02.100Z,9.58
2018-04-01T16:15:25.301Z,9.50
2018-04-01T16:18:48.585Z,9.62
2018-04-01T16:22:10.945Z,9.48
2018-04-01T16:25:34.009Z,9.38
2018-04-01T16:28:57.069Z,9.32
2018-04-01T16:32:19.404Z,9.14
2018-04-01T16:35:41.745Z,8.96
2018-04-01T16:39:04.779Z,8.99
2018-04-01T16:42:27.100Z,8.98
2018-04-01T16:45:49.405Z,8.84
2018-04-01T16:49:11.679Z,8.93
2018-04-01T16:52:34.031Z,9.03
2018-04-01T16:55:57.084Z,8.92
2018-04-01T16:59:19.440Z,8.98
2018-04-01T17:02:42.615Z,8.99
2018-04-01T17:06:04.968Z,8.98
2018-04-01T17:09:29.181Z,8.92
2018-04-01T17:12:51.631Z,8.91
2018-04-01T17:16:14.682Z,8.91
2018-04-01T17:19:37.016Z,8.85
2018-04-01T17:22:59.290Z,8.83
2018-04-01T17:26:22.358Z,8.82
2018-04-01T17:29:45.407Z,8.84
2018-04-01T17:33:07.725Z,8.81
2018-04-01T17:36:30.813Z,8.80
2018-04-01T17:39:53.226Z,8.80
2018-04-01T17:43:15.504Z,8.79
2018-04-01T17:46:38.591Z,8.73
2018-04-01T17:50:01.644Z,8.68
2018-04-01T17:53:24.694Z,8.58
2018-04-01T17:56:47.038Z,8.59
2018-04-01T18:00:09.465Z,8.49
2018-04-01T18:03:32.530Z,8.42
2018-04-01T18:06:55.238Z,8.44
2018-04-01T18:10:17.574Z,8.47
2018-04-01T18:13:40.749Z,8.59
2018-04-01T18:17:03.058Z,8.56
2018-04-01T18:20:26.864Z,8.49
2018-04-01T18:23:49.173Z,8.38
2018-04-01T18:27:12.260Z,8.41
2018-04-01T18:30:34.587Z,8.44
2018-04-01T18:33:57.675Z,8.44
2018-04-01T18:37:20.018Z,8.52
2018-04-01T18:40:42.425Z,8.47
2018-04-01T18:44:04.757Z,8.46
2018-04-01T20:10:20.656Z,7.28
2018-04-01T20:13:44.034Z,7.04
2018-04-01T20:17:06.898Z,7.04
2018-04-01T20:20:29.749Z,6.98
2018-04-01T20:23:52.592Z,6.99
2018-04-01T20:27:15.490Z,6.88
2018-04-01T20:30:38.366Z,6.84
2018-04-01T20:34:01.183Z,6.84
2018-04-01T20:37:24.067Z,6.78
2018-04-01T20:40:47.023Z,6.63
2018-04-01T20:44:09.871Z,6.52
2018-04-01T20:47:33.539Z,6.41
2018-04-01T20:50:56.380Z,6.31
2018-04-01T20:54:19.246Z,6.27
2018-04-01T20:57:42.077Z,6.22
2018-04-01T21:01:04.930Z,6.15
2018-04-01T21:04:28.006Z,5.98
2018-04-01T21:07:50.866Z,6.04
2018-04-01T21:11:13.768Z,5.94
2018-04-01T21:14:36.740Z,5.92
2018-04-01T21:17:59.599Z,5.86
2018-04-01T21:21:22.444Z,5.79
2018-04-01T21:24:45.310Z,5.74
2018-04-01T21:28:08.166Z,5.65
2018-04-01T21:31:31.007Z,5.66
2018-04-01T21:34:53.843Z,5.61
2018-04-01T21:38:16.709Z,5.61
2018-04-01T23:04:31.910Z,4.67
2018-04-01T23:07:55.784Z,4.63
2018-04-01T23:11:18.939Z,4.61
2018-04-01T23:14:41.911Z,4.57
2018-04-01T23:18:04.774Z,4.45
2018-04-01T23:21:27.632Z,4.44
2018-04-01T23:24:50.454Z,4.46
2018-04-01T23:28:14.121Z,4.44
2018-04-01T23:31:37.957Z,4.38
2018-04-01T23:35:01.573Z,4.39
2018-04-01T23:38:24.419Z,4.43
2018-04-01T23:41:47.257Z,4.38
2018-04-01T23:45:10.144Z,4.38
2018-04-01T23:48:33.844Z,4.32
